createdAt,value
2023-04-14T00:01:34.011Z,4.97
2023-04-14T00:04:04.108Z,9.30
2023-04-14T00:06:33.068Z,3.77
2023-04-14T00:09:01.733Z,4.63
2023-04-14T00:11:30.790Z,7.70
2023-04-14T00:14:01.409Z,7.30
2023-04-14T00:16:30.049Z,7.23
2023-04-14T00:18:58.778Z,7.07
2023-04-14T00:21:29.196Z,4.33
2023-04-14T00:23:58.185Z,7.90
2023-04-14T00:26:27.112Z,6.07
2023-04-14T00:28:55.737Z,11.10
2023-04-14T00:31:24.290Z,4.60
2023-04-14T00:33:52.820Z,9.33
2023-04-14T00:36:21.729Z,6.60
2023-04-14T00:38:51.710Z,4.60
2023-04-14T00:41:20.080Z,6.27
2023-04-14T00:43:48.822Z,3.90
2023-04-14T00:46:19.166Z,4.37
2023-04-14T00:48:48.831Z,5.53
2023-04-14T00:51:17.680Z,6.40
2023-04-14T00:53:46.880Z,6.50
2023-04-14T00:56:17.229Z,6.37
2023-04-14T00:58:46.502Z,6.47
2023-04-14T01:01:15.372Z,8.17
2023-04-14T01:03:45.216Z,8.83
2023-04-14T01:06:13.805Z,7.13
2023-04-14T01:08:42.422Z,10.70
2023-04-14T01:11:18.628Z,5.40
2023-04-14T01:14:03.830Z,4.00
2023-04-14T01:16:38.325Z,5.57
2023-04-14T01:19:20.301Z,5.43
2023-04-14T01:21:53.268Z,5.47
2023-04-14T01:24:53.036Z,2.90
2023-04-14T01:27:37.845Z,6.10
2023-04-14T01:30:28.460Z,6.57
2023-04-14T01:33:04.913Z,8.13
2023-04-14T01:35:39.942Z,8.83
2023-04-14T01:38:14.020Z,4.43
2023-04-14T01:40:48.049Z,3.17
2023-04-14T01:43:17.528Z,8.07
2023-04-14T01:45:51.571Z,4.37
2023-04-14T01:48:22.013Z,4.73
2023-04-14T01:50:51.021Z,7.03
2023-04-14T01:53:22.217Z,8.43
2023-04-14T01:55:52.042Z,4.40
2023-04-14T01:58:22.032Z,6.80
2023-04-14T02:00:52.888Z,2.97
2023-04-14T02:03:24.855Z,9.03
2023-04-14T02:05:55.859Z,8.90
2023-04-14T02:08:26.022Z,8.63
2023-04-14T02:10:55.394Z,5.10
2023-04-14T02:13:25.554Z,8.30
2023-04-14T02:15:54.461Z,5.07
2023-04-14T02:18:32.361Z,6.60
2023-04-14T02:21:02.458Z,8.53
2023-04-14T02:23:33.044Z,8.57
2023-04-14T02:26:06.940Z,10.33
2023-04-14T02:28:38.895Z,7.60
2023-04-14T02:31:11.505Z,6.33
2023-04-14T02:33:42.133Z,9.37
2023-04-14T02:36:15.682Z,2.67
2023-04-14T02:38:48.293Z,6.33
2023-04-14T02:41:26.275Z,3.33
2023-04-14T02:44:02.368Z,6.67
2023-04-14T02:46:35.897Z,6.07
2023-04-14T02:49:07.393Z,3.83
2023-04-14T02:51:38.873Z,10.67
2023-04-14T02:54:07.813Z,8.53
2023-04-14T02:56:36.908Z,6.57
2023-04-14T02:59:06.818Z,9.87
2023-04-14T03:01:36.017Z,6.23
2023-04-14T03:04:06.603Z,2.67
2023-04-14T03:06:36.592Z,2.00
2023-04-14T03:09:06.476Z,6.83
2023-04-14T03:11:38.026Z,6.67
2023-04-14T03:14:08.391Z,4.47
2023-04-14T03:16:39.542Z,6.10
2023-04-14T03:19:10.494Z,8.10
2023-04-14T03:21:40.707Z,6.60
2023-04-14T03:24:14.169Z,5.23
2023-04-14T03:26:45.546Z,4.70
2023-04-14T03:29:16.001Z,4.83
2023-04-14T03:31:45.645Z,3.93
2023-04-14T03:34:17.710Z,9.47
2023-04-14T03:36:49.706Z,5.33
2023-04-14T03:39:21.493Z,6.40
2023-04-14T03:41:51.835Z,8.40
2023-04-14T03:44:21.396Z,9.57
2023-04-14T03:46:50.495Z,13.93
2023-04-14T03:49:21.822Z,8.50
2023-04-14T03:51:53.455Z,7.60
2023-04-14T03:54:24.687Z,6.73
2023-04-14T03:56:56.900Z,11.00
2023-04-14T03:59:27.539Z,4.90
2023-04-14T04:01:57.363Z,10.70
2023-04-14T04:04:28.318Z,7.13
2023-04-14T04:06:57.138Z,5.03
2023-04-14T04:09:26.607Z,8.60
2023-04-14T04:11:58.261Z,7.03
2023-04-14T04:14:28.592Z,6.17
2023-04-14T04:16:57.819Z,7.80
2023-04-14T04:19:28.143Z,7.07
2023-04-14T04:21:58.592Z,6.37
2023-04-14T04:24:30.402Z,6.67
2023-04-14T04:27:00.086Z,7.70
2023-04-14T04:29:28.747Z,5.37
2023-04-14T04:31:57.364Z,6.03
2023-04-14T04:34:28.260Z,13.20
2023-04-14T04:36:57.163Z,4.33
2023-04-14T04:39:25.738Z,4.53
2023-04-14T04:42:04.149Z,6.80
2023-04-14T04:44:33.827Z,6.77
2023-04-14T04:47:02.662Z,9.77
2023-04-14T04:49:32.477Z,9.53
2023-04-14T04:52:01.256Z,7.77
2023-04-14T04:54:29.745Z,10.00
2023-04-14T04:56:58.955Z,5.90
2023-04-14T04:59:30.153Z,8.80
2023-04-14T05:01:59.048Z,7.43
2023-04-14T05:04:27.748Z,8.77
2023-04-14T05:06:57.738Z,7.80
2023-04-14T05:09:26.269Z,7.13
2023-04-14T05:11:54.815Z,7.63
2023-04-14T05:14:23.301Z,9.30
2023-04-14T05:16:52.084Z,4.67
2023-04-14T05:19:20.892Z,8.80
2023-04-14T05:21:49.267Z,8.23
2023-04-14T05:24:22.742Z,6.77
2023-04-14T05:27:11.692Z,7.43
2023-04-14T05:29:40.181Z,6.47
2023-04-14T05:32:08.615Z,7.93
2023-04-14T05:34:37.045Z,10.27
2023-04-14T05:37:05.850Z,6.57
2023-04-14T05:39:36.020Z,9.80
2023-04-14T05:42:04.473Z,7.60
2023-04-14T05:44:32.881Z,5.20
2023-04-14T05:47:01.748Z,9.20
2023-04-14T05:49:30.633Z,8.70
2023-04-14T05:51:59.103Z,7.50
2023-04-14T05:54:27.589Z,11.27
2023-04-14T05:56:57.756Z,6.77
2023-04-14T05:59:26.241Z,10.83
2023-04-14T06:01:54.952Z,5.70
2023-04-14T06:04:23.744Z,8.07
2023-04-14T06:06:52.755Z,8.73
2023-04-14T06:09:21.735Z,6.50
2023-04-14T06:11:50.281Z,4.57
2023-04-14T06:14:20.126Z,11.10
2023-04-14T06:16:48.825Z,8.63
2023-04-14T06:19:22.984Z,7.93
2023-04-14T06:21:52.074Z,11.27
2023-04-14T06:24:20.943Z,7.27
2023-04-14T06:26:50.137Z,11.97
2023-04-14T06:29:20.518Z,11.10
2023-04-14T06:31:50.500Z,11.23
2023-04-14T06:34:19.484Z,10.27
2023-04-14T06:36:48.588Z,11.37
2023-04-14T06:39:17.425Z,8.70
2023-04-14T06:41:46.141Z,13.77
2023-04-14T06:44:14.579Z,10.33
2023-04-14T06:46:45.588Z,9.20
2023-04-14T06:49:17.648Z,8.23
2023-04-14T06:51:46.674Z,10.73
2023-04-14T06:54:15.963Z,11.70
2023-04-14T06:56:44.882Z,13.53
2023-04-14T06:59:18.096Z,13.40
2023-04-14T07:01:51.776Z,11.67
2023-04-14T07:04:22.153Z,13.20
2023-04-14T07:06:53.482Z,9.13
2023-04-14T07:09:25.008Z,9.63
2023-04-14T07:11:54.560Z,10.63
2023-04-14T07:14:24.564Z,10.83
2023-04-14T07:16:55.571Z,11.97
2023-04-14T07:19:27.596Z,12.27
2023-04-14T07:21:56.665Z,9.60
2023-04-14T07:24:25.982Z,12.90
2023-04-14T07:26:57.798Z,9.90
2023-04-14T07:29:33.715Z,11.57
2023-04-14T07:32:15.651Z,12.73
2023-04-14T07:34:44.994Z,10.13
2023-04-14T07:37:16.689Z,9.33
2023-04-14T07:39:45.325Z,10.73
2023-04-14T07:42:21.247Z,12.13
2023-04-14T07:44:49.986Z,10.57
2023-04-14T07:47:19.966Z,10.77
2023-04-14T07:49:53.455Z,14.73
2023-04-14T07:52:22.021Z,12.63
2023-04-14T07:54:51.086Z,11.33
2023-04-14T07:57:24.630Z,13.93
2023-04-14T07:59:56.287Z,11.90
2023-04-14T08:02:37.991Z,9.80
2023-04-14T08:05:09.184Z,10.50
2023-04-14T08:07:47.388Z,9.50
2023-04-14T08:10:19.862Z,14.87
2023-04-14T08:12:49.690Z,12.33
2023-04-14T08:15:20.639Z,10.77
2023-04-14T08:17:52.104Z,13.43
2023-04-14T08:20:22.226Z,11.33
2023-04-14T08:22:51.871Z,11.83
2023-04-14T08:25:24.423Z,11.23
2023-04-14T08:27:58.438Z,11.90
2023-04-14T08:30:38.602Z,6.77
2023-04-14T08:33:15.093Z,7.97
2023-04-14T08:35:59.926Z,9.97
2023-04-14T08:38:30.694Z,12.73
2023-04-14T08:41:07.130Z,8.23
2023-04-14T08:43:41.794Z,10.73
2023-04-14T08:46:13.612Z,8.93
2023-04-14T08:48:53.127Z,11.20
2023-04-14T08:51:30.130Z,9.73
2023-04-14T08:54:02.034Z,11.47
2023-04-14T08:56:38.066Z,9.30
2023-04-14T08:59:12.069Z,8.50
2023-04-14T09:01:41.540Z,5.93
2023-04-14T09:04:15.211Z,5.43
2023-04-14T09:06:44.677Z,9.83
2023-04-14T09:09:18.560Z,12.30
2023-04-14T09:11:49.688Z,9.50
2023-04-14T09:14:25.770Z,6.77
2023-04-14T09:16:56.650Z,12.53
2023-04-14T09:19:30.502Z,10.70
2023-04-14T09:21:59.471Z,7.80
2023-04-14T09:24:34.553Z,12.17
2023-04-14T09:27:10.741Z,6.87
2023-04-14T09:29:39.629Z,9.70
2023-04-14T09:32:15.153Z,10.00
2023-04-14T09:35:03.504Z,9.00
2023-04-14T09:37:45.298Z,7.50
2023-04-14T09:40:34.855Z,9.20
2023-04-14T09:43:03.516Z,10.30
2023-04-14T09:45:46.290Z,6.43
2023-04-14T09:48:17.736Z,10.10
2023-04-14T09:51:21.349Z,10.00
2023-04-14T09:53:56.753Z,7.23
2023-04-14T09:56:35.208Z,8.43
2023-04-14T09:59:05.238Z,6.43
2023-04-14T10:01:42.831Z,10.10
2023-04-14T10:04:27.413Z,7.70
2023-04-14T10:07:02.644Z,6.20
2023-04-14T10:09:43.451Z,7.70
2023-04-14T10:12:16.085Z,6.20
2023-04-14T10:14:49.179Z,6.17
2023-04-14T10:17:22.429Z,12.00
2023-04-14T10:19:55.566Z,4.90
2023-04-14T10:22:33.833Z,6.77
2023-04-14T10:25:10.415Z,6.47
2023-04-14T10:27:40.043Z,6.37
2023-04-14T10:30:13.104Z,6.63
2023-04-14T10:32:42.983Z,9.27
2023-04-14T10:35:18.074Z,8.43
2023-04-14T10:37:54.323Z,7.17
2023-04-14T10:40:26.244Z,6.17
2023-04-14T10:42:58.781Z,7.03
2023-04-14T10:45:44.780Z,8.87
2023-04-14T10:48:19.232Z,9.53
2023-04-14T10:50:51.781Z,5.50
2023-04-14T10:53:35.561Z,8.27
2023-04-14T10:56:08.850Z,6.03
2023-04-14T10:58:44.682Z,9.83
2023-04-14T11:01:40.569Z,7.10
2023-04-14T11:04:31.069Z,5.30
2023-04-14T11:07:11.094Z,7.87
2023-04-14T11:09:47.855Z,6.33
2023-04-14T11:12:28.104Z,6.33
2023-04-14T11:15:07.007Z,7.30
2023-04-14T11:17:43.405Z,5.83
2023-04-14T11:20:17.354Z,5.57
2023-04-14T11:22:49.404Z,6.50
2023-04-14T11:25:24.784Z,7.17
2023-04-14T11:27:54.717Z,4.90
2023-04-14T11:30:29.245Z,7.50
2023-04-14T11:32:59.979Z,6.07
2023-04-14T11:35:30.272Z,5.53
2023-04-14T11:38:00.751Z,7.80
2023-04-14T11:40:37.464Z,5.60
2023-04-14T11:43:09.030Z,4.73
2023-04-14T11:45:52.492Z,7.70
2023-04-14T11:48:30.166Z,3.67
2023-04-14T11:51:12.219Z,5.87
2023-04-14T11:53:45.080Z,7.30
2023-04-14T11:56:15.592Z,5.53
2023-04-14T11:58:49.369Z,7.10
2023-04-14T12:01:24.474Z,4.70
2023-04-14T12:03:56.798Z,4.67
2023-04-14T12:06:30.374Z,6.30
2023-04-14T12:09:03.961Z,4.67
2023-04-14T12:11:34.552Z,6.23
2023-04-14T12:14:03.814Z,7.43
2023-04-14T12:16:33.466Z,7.67
2023-04-14T12:19:04.244Z,8.00
2023-04-14T12:21:34.836Z,7.23
2023-04-14T12:24:07.580Z,5.47
2023-04-14T12:26:38.940Z,3.40
2023-04-14T12:29:17.864Z,7.03
2023-04-14T12:31:47.932Z,4.87
2023-04-14T12:34:35.671Z,7.60
2023-04-14T12:37:10.094Z,6.93
2023-04-14T12:39:56.793Z,5.20
2023-04-14T12:42:29.316Z,6.80
2023-04-14T12:45:00.728Z,4.27
2023-04-14T12:47:34.631Z,5.37
2023-04-14T12:50:23.063Z,7.07
2023-04-14T12:52:56.615Z,7.83
2023-04-14T12:55:27.733Z,4.63
2023-04-14T12:58:04.459Z,5.57
2023-04-14T13:00:44.306Z,7.90
2023-04-14T13:03:16.497Z,4.37
2023-04-14T13:05:47.479Z,5.93
2023-04-14T13:08:22.170Z,7.03
2023-04-14T13:10:53.655Z,5.60
2023-04-14T13:13:33.322Z,7.67
2023-04-14T13:16:13.807Z,5.97
2023-04-14T13:18:45.650Z,2.97
2023-04-14T13:21:17.672Z,5.03
2023-04-14T13:23:51.063Z,5.90
2023-04-14T13:26:23.884Z,3.70
2023-04-14T13:29:01.715Z,3.27
2023-04-14T13:31:37.230Z,5.60
2023-04-14T13:34:07.366Z,6.87
2023-04-14T13:36:37.288Z,4.73
2023-04-14T13:39:08.017Z,8.30
2023-04-14T13:41:36.905Z,8.00
2023-04-14T13:44:07.404Z,5.40
2023-04-14T13:46:41.304Z,6.23
2023-04-14T13:49:15.029Z,5.23
2023-04-14T13:51:44.589Z,3.27
2023-04-14T13:54:14.241Z,5.83
2023-04-14T13:56:46.272Z,4.77
2023-04-14T13:59:17.848Z,4.40
2023-04-14T14:01:50.093Z,5.77
2023-04-14T14:04:29.184Z,7.30
2023-04-14T14:06:58.723Z,6.13
2023-04-14T14:09:28.541Z,5.17
2023-04-14T14:12:03.185Z,6.63
2023-04-14T14:14:34.147Z,8.17
2023-04-14T14:17:07.232Z,4.37
2023-04-14T14:19:38.879Z,7.37
2023-04-14T14:22:08.596Z,4.97
2023-04-14T14:24:41.735Z,5.10
2023-04-14T14:27:10.844Z,5.60
2023-04-14T14:29:44.245Z,5.13
2023-04-14T14:32:14.716Z,4.50
2023-04-14T14:34:49.377Z,4.20
2023-04-14T14:37:19.265Z,4.73
2023-04-14T14:39:52.159Z,3.67
2023-04-14T14:42:21.297Z,5.40
2023-04-14T14:44:51.673Z,6.93
2023-04-14T14:47:21.428Z,7.13
2023-04-14T14:50:00.531Z,3.80
2023-04-14T14:52:34.801Z,5.13
2023-04-14T14:55:04.334Z,5.73
2023-04-14T14:57:33.179Z,4.23
2023-04-14T15:00:05.990Z,3.83
2023-04-14T15:02:35.660Z,4.63
2023-04-14T15:05:06.384Z,4.63
2023-04-14T15:07:35.412Z,3.23
2023-04-14T15:10:08.419Z,8.03
2023-04-14T15:12:40.256Z,4.23
2023-04-14T15:15:11.707Z,7.03
2023-04-14T15:17:41.309Z,4.63
2023-04-14T15:20:10.881Z,4.57
2023-04-14T15:22:52.192Z,6.50
2023-04-14T15:25:21.520Z,5.33
2023-04-14T15:27:55.418Z,5.87
2023-04-14T15:30:27.167Z,4.80
2023-04-14T15:32:59.040Z,5.07
2023-04-14T15:35:38.873Z,4.57
2023-04-14T15:38:11.811Z,6.20
2023-04-14T15:40:47.023Z,6.47
2023-04-14T15:43:20.304Z,5.67
2023-04-14T15:45:57.657Z,6.50
2023-04-14T15:48:29.906Z,3.67
2023-04-14T15:51:01.532Z,6.40
2023-04-14T15:53:36.246Z,6.27
2023-04-14T15:56:10.912Z,4.93
2023-04-14T15:58:43.054Z,6.97
2023-04-14T16:01:14.020Z,4.63
2023-04-14T16:03:54.223Z,4.83
2023-04-14T16:06:24.879Z,5.67
2023-04-14T16:08:57.413Z,5.50
2023-04-14T16:11:32.420Z,3.73
2023-04-14T16:14:11.064Z,6.07
2023-04-14T16:17:04.359Z,7.13
2023-04-14T16:19:39.894Z,6.60
2023-04-14T16:22:18.274Z,5.70
2023-04-14T16:24:49.161Z,8.10
2023-04-14T16:27:20.964Z,6.53
2023-04-14T16:30:05.797Z,7.37
2023-04-14T16:32:43.482Z,5.77
2023-04-14T16:35:20.423Z,5.93
2023-04-14T16:37:53.295Z,7.43
2023-04-14T16:40:34.573Z,7.47
2023-04-14T16:43:05.940Z,8.67
2023-04-14T16:45:47.181Z,4.97
2023-04-14T16:48:28.642Z,8.10
2023-04-14T16:51:09.966Z,5.03
2023-04-14T16:54:02.839Z,4.73
2023-04-14T16:56:35.619Z,4.77
2023-04-14T16:59:07.714Z,6.03
2023-04-14T17:01:43.416Z,5.87
2023-04-14T17:04:20.175Z,11.20
2023-04-14T17:06:53.425Z,8.30
2023-04-14T17:09:26.666Z,4.93
2023-04-14T17:11:57.657Z,9.77
2023-04-14T17:14:34.753Z,3.53
2023-04-14T17:17:08.434Z,5.40
2023-04-14T17:19:39.494Z,4.20
2023-04-14T17:22:08.849Z,8.07
2023-04-14T17:24:39.326Z,5.60
2023-04-14T17:27:14.458Z,5.63
2023-04-14T17:29:43.150Z,7.73
2023-04-14T17:32:13.043Z,5.87
2023-04-14T17:34:46.491Z,6.67
2023-04-14T17:37:21.335Z,4.60
2023-04-14T17:39:57.894Z,5.30
2023-04-14T17:42:28.309Z,5.80
2023-04-14T17:44:58.562Z,5.40
2023-04-14T17:47:32.892Z,4.03
2023-04-14T17:50:09.951Z,4.90
2023-04-14T17:52:41.574Z,5.57
2023-04-14T17:55:16.902Z,4.77
2023-04-14T17:57:48.497Z,4.33
2023-04-14T18:00:27.712Z,4.40
2023-04-14T18:03:13.464Z,4.93
2023-04-14T18:05:57.239Z,5.73
2023-04-14T18:08:31.794Z,14.07
2023-04-14T18:11:03.621Z,16.90
2023-04-14T18:13:36.751Z,9.20
2023-04-14T18:16:09.441Z,7.13
2023-04-14T18:18:45.431Z,8.40
2023-04-14T18:21:16.277Z,4.37
2023-04-14T18:24:47.753Z,19.33
2023-04-14T18:26:39.558Z,17.83
2023-04-14T18:29:09.119Z,26.93
2023-04-14T18:31:39.296Z,64.67
2023-04-14T18:34:17.069Z,48.13
2023-04-14T18:36:51.195Z,35.77
2023-04-14T18:39:25.465Z,22.60
2023-04-14T18:42:04.943Z,14.83
2023-04-14T18:44:43.708Z,9.63
2023-04-14T18:47:13.098Z,7.93
2023-04-14T18:49:47.224Z,7.73
2023-04-14T18:52:21.445Z,9.30
2023-04-14T18:54:50.989Z,7.10
2023-04-14T18:57:24.006Z,7.50
2023-04-14T18:59:56.664Z,8.53
2023-04-14T19:02:27.900Z,9.30
2023-04-14T19:05:03.459Z,8.80
2023-04-14T19:07:36.000Z,7.50
2023-04-14T19:10:11.947Z,5.77
2023-04-14T19:12:47.143Z,11.10
2023-04-14T19:15:24.589Z,9.03
2023-04-14T19:18:08.618Z,9.17
2023-04-14T19:20:41.361Z,9.43
2023-04-14T19:23:12.395Z,7.93
2023-04-14T19:25:45.243Z,7.67
2023-04-14T19:28:28.602Z,9.73
2023-04-14T19:31:00.847Z,6.20
2023-04-14T19:33:34.115Z,7.33
2023-04-14T19:36:06.541Z,8.90
2023-04-14T19:38:40.889Z,24.70
2023-04-14T19:41:14.546Z,16.23
2023-04-14T19:44:01.210Z,9.40
2023-04-14T19:46:37.891Z,6.50
2023-04-14T19:49:21.470Z,7.47
2023-04-14T19:52:03.624Z,7.57
2023-04-14T19:54:52.982Z,6.00
2023-04-14T19:57:33.822Z,6.03
2023-04-14T20:00:09.724Z,5.07
2023-04-14T20:02:54.778Z,6.47
2023-04-14T20:05:42.259Z,4.80
2023-04-14T20:08:39.900Z,4.63
2023-04-14T20:11:29.848Z,5.17
2023-04-14T20:14:17.765Z,7.00
2023-04-14T20:16:53.548Z,3.87
2023-04-14T20:19:33.072Z,4.73
2023-04-14T20:22:15.989Z,7.57
2023-04-14T20:24:56.398Z,4.33
2023-04-14T20:27:42.560Z,4.40
2023-04-14T20:30:19.433Z,5.07
2023-04-14T20:32:54.232Z,5.63
2023-04-14T20:35:26.347Z,5.10
2023-04-14T20:38:02.042Z,5.37
2023-04-14T20:40:33.319Z,8.10
2023-04-14T20:43:12.639Z,5.97
2023-04-14T20:45:42.689Z,7.10
2023-04-14T20:48:24.893Z,7.00
2023-04-14T20:51:01.937Z,6.33
2023-04-14T20:53:44.566Z,5.10
2023-04-14T20:56:17.163Z,5.60
2023-04-14T20:58:49.042Z,6.63
2023-04-14T21:01:27.178Z,5.13
2023-04-14T21:04:01.998Z,5.90
2023-04-14T21:06:33.084Z,6.30
2023-04-14T21:09:06.199Z,6.87
2023-04-14T21:11:39.146Z,10.73
2023-04-14T21:15:44.123Z,7.73
2023-04-14T21:17:15.762Z,8.27
2023-04-14T21:19:58.257Z,9.27
2023-04-14T21:22:30.415Z,8.37
2023-04-14T21:25:08.941Z,8.17
2023-04-14T21:27:41.174Z,6.20
2023-04-14T21:30:15.329Z,6.47
2023-04-14T21:32:47.685Z,7.30
2023-04-14T21:35:17.666Z,5.70
2023-04-14T21:37:55.682Z,6.27
2023-04-14T21:40:32.726Z,5.10
2023-04-14T21:43:02.874Z,6.30
2023-04-14T21:45:40.253Z,7.40
2023-04-14T21:48:14.354Z,10.80
2023-04-14T21:50:45.229Z,7.33
2023-04-14T21:53:15.547Z,6.03
2023-04-14T21:56:04.431Z,7.47
2023-04-14T21:58:43.925Z,6.77
2023-04-14T22:01:30.691Z,7.27
2023-04-14T22:04:00.724Z,8.53
2023-04-14T22:06:30.313Z,5.57
2023-04-14T22:09:05.357Z,6.80
2023-04-14T22:11:40.714Z,5.40
2023-04-14T22:14:11.720Z,5.73
2023-04-14T22:16:52.972Z,5.53
2023-04-14T22:19:22.696Z,4.77
2023-04-14T22:21:59.087Z,9.47
2023-04-14T22:24:38.020Z,5.20
2023-04-14T22:27:18.524Z,5.83
2023-04-14T22:29:55.646Z,6.47
2023-04-14T22:32:35.285Z,5.13
2023-04-14T22:35:08.376Z,4.40
2023-04-14T22:37:38.214Z,5.30
2023-04-14T22:40:23.066Z,5.73
2023-04-14T22:43:05.555Z,5.43
2023-04-14T22:45:38.485Z,6.07
2023-04-14T22:48:15.662Z,6.60
2023-04-14T22:50:57.672Z,5.37
2023-04-14T22:53:35.344Z,6.47
2023-04-14T22:56:15.071Z,7.50
2023-04-14T23:01:50.179Z,8.87
2023-04-14T23:04:25.933Z,6.83
2023-04-14T23:06:55.484Z,7.13
2023-04-14T23:09:31.801Z,7.10
2023-04-14T23:12:05.631Z,6.13
2023-04-14T23:14:44.959Z,9.73
2023-04-14T23:17:16.731Z,10.97
2023-04-14T23:19:51.682Z,7.83
2023-04-14T23:22:32.124Z,8.93
2023-04-14T23:25:09.935Z,8.43
2023-04-14T23:27:40.760Z,8.97
2023-04-14T23:30:14.796Z,11.33
2023-04-14T23:32:48.623Z,10.17
2023-04-14T23:35:25.953Z,8.87
2023-04-14T23:38:02.846Z,10.37
2023-04-14T23:40:36.062Z,10.27
2023-04-14T23:43:07.137Z,9.97
2023-04-14T23:45:45.633Z,10.37
2023-04-14T23:48:39.650Z,11.00
2023-04-14T23:51:16.633Z,13.03
2023-04-14T23:54:03.161Z,11.67
2023-04-14T23:56:38.717Z,8.30
2023-04-14T23:59:13.819Z,10.33
